Time,TemperatureF,DewpointF,PressureIn,WindDirection,WindDirectionDegrees,WindSpeedMPH,WindSpeedGustMPH,Humidity,HourlyPrecipIn,Conditions,Clouds,dailyrainin,SolarRadiationWatts/m^2,SoftwareType,DateUTC
2013-10-15 00:00:00,26.2,23.4,25.69,South,180,0.0,0.0,89,0.00,CLR,,0.00,0.0,WeatherDisplay:10.37,2013-10-15 06:00:00,
2013-10-15 00:05:00,26.2,23.4,25.69,South,180,0.0,0.0,89,0.00,CLR,,0.00,0.0,WeatherDisplay:10.37,2013-10-15 06:05:00,
2013-10-15 00:10:00,26.2,23.4,25.69,South,180,0.0,0.0,89,0.00,CLR,,0.00,0.0,WeatherDisplay:10.37,2013-10-15 06:10:00,
2013-10-15 00:15:00,26.4,23.6,25.69,South,180,0.0,0.0,89,0.00,CLR,,0.00,0.0,WeatherDisplay:10.37,2013-10-15 06:15:00,
2013-10-15 00:20:00,26.2,23.4,25.69,South,180,0.0,0.0,89,0.00,CLR,,0.00,0.0,WeatherDisplay:10.37,2013-10-15 06:20:00,
2013-10-15 00:25:00,26.2,23.4,25.69,South,180,0.0,0.0,89,0.00,CLR,,0.00,0.0,WeatherDisplay:10.37,2013-10-15 06:25:00,
2013-10-15 00:30:00,26.1,23.3,25.69,South,180,0.0,0.0,89,0.00,CLR,,0.00,0.0,WeatherDisplay:10.37,2013-10-15 06:30:00,
2013-10-15 00:35:00,26.1,23.3,25.69,South,180,0.0,0.0,89,0.00,CLR,,0.00,0.0,WeatherDisplay:10.37,2013-10-15 06:35:00,
2013-10-15 00:40:00,25.9,23.1,25.69,South,180,0.0,0.0,89,0.00,CLR,,0.00,0.0,WeatherDisplay:10.37,2013-10-15 06:40:00,
2013-10-15 00:45:00,25.7,22.9,25.68,South,180,0.0,0.0,89,0.00,CLR,,0.00,0.0,WeatherDisplay:10.37,2013-10-15 06:45:00,
2013-10-15 00:50:00,25.5,22.7,25.68,South,180,0.0,0.0,89,0.00,CLR,,0.00,0.0,WeatherDisplay:10.37,2013-10-15 06:50:00,
2013-10-15 00:55:00,25.3,22.6,25.68,South,180,0.0,0.0,89,0.00,CLR,,0.00,0.0,WeatherDisplay:10.37,2013-10-15 06:55:00,
2013-10-15 01:00:00,25.3,22.6,25.68,South,180,0.0,0.0,89,0.00,CLR,,0.00,0.0,WeatherDisplay:10.37,2013-10-15 07:00:00,
2013-10-15 01:05:00,25.3,22.6,25.68,South,180,0.0,0.0,89,0.00,CLR,,0.00,0.0,WeatherDisplay:10.37,2013-10-15 07:05:00,
2013-10-15 01:10:00,25.2,22.4,25.68,South,180,0.0,0.0,89,0.00,CLR,,0.00,0.0,WeatherDisplay:10.37,2013-10-15 07:10:00,
2013-10-15 01:15:00,25.0,22.2,25.68,South,180,0.0,0.0,89,0.00,CLR,,0.00,0.0,WeatherDisplay:10.37,2013-10-15 07:15:00,
2013-10-15 01:20:00,25.0,22.2,25.68,South,180,0.0,0.0,89,0.00,CLR,,0.00,0.0,WeatherDisplay:10.37,2013-10-15 07:20:00,
2013-10-15 01:25:00,25.0,22.2,25.68,South,180,0.0,0.0,89,0.00,CLR,,0.00,0.0,WeatherDisplay:10.37,2013-10-15 07:25:00,
2013-10-15 01:30:00,24.8,22.0,25.68,South,180,0.0,0.0,89,0.00,CLR,,0.00,0.0,WeatherDisplay:10.37,2013-10-15 07:30:00,
2013-10-15 01:35:00,24.8,22.0,25.68,South,180,0.0,0.0,89,0.00,CLR,,0.00,0.0,WeatherDisplay:10.37,2013-10-15 07:35:00,
2013-10-15 01:40:00,24.6,21.8,25.68,South,180,0.0,0.0,89,0.00,CLR,,0.00,0.0,WeatherDisplay:10.37,2013-10-15 07:40:00,
2013-10-15 01:45:00,24.6,21.8,25.68,South,180,0.0,0.0,89,0.00,CLR,,0.00,0.0,WeatherDisplay:10.37,2013-10-15 07:45:00,
2013-10-15 01:50:00,24.6,21.8,25.68,South,180,0.0,0.0,89,0.00,CLR,,0.00,0.0,WeatherDisplay:10.37,2013-10-15 07:50:00,
2013-10-15 01:55:00,24.6,21.8,25.68,South,180,0.0,0.0,89,0.00,CLR,,0.00,0.0,WeatherDisplay:10.37,2013-10-15 07:55:00,
2013-10-15 02:00:00,24.4,21.7,25.68,South,180,0.0,0.0,89,0.00,CLR,,0.00,0.0,WeatherDisplay:10.37,2013-10-15 08:00:00,
2013-10-15 02:05:00,24.4,21.7,25.68,South,180,0.0,0.0,89,0.00,CLR,,0.00,0.0,WeatherDisplay:10.37,2013-10-15 08:05:00,
2013-10-15 02:10:00,24.3,21.5,25.68,South,180,0.0,0.0,89,0.00,CLR,,0.00,0.0,WeatherDisplay:10.37,2013-10-15 08:10:00,
2013-10-15 02:15:00,24.1,21.3,25.68,South,180,0.0,0.0,89,0.00,CLR,,0.00,0.0,WeatherDisplay:10.37,2013-10-15 08:15:00,
2013-10-15 02:20:00,24.1,21.3,25.68,South,180,0.0,0.0,89,0.00,CLR,,0.00,0.0,WeatherDisplay:10.37,2013-10-15 08:20:00,
2013-10-15 02:25:00,24.1,21.3,25.67,South,180,0.0,0.0,89,0.00,CLR,,0.00,0.0,WeatherDisplay:10.37,2013-10-15 08:25:00,
2013-10-15 02:30:00,24.1,21.6,25.68,South,180,0.0,0.0,90,0.00,CLR,,0.00,0.0,WeatherDisplay:10.37,2013-10-15 08:30:00,
2013-10-15 02:35:00,24.1,21.6,25.67,South,180,0.0,0.0,90,0.00,CLR,,0.00,0.0,WeatherDisplay:10.37,2013-10-15 08:35:00,
2013-10-15 02:40:00,24.1,21.6,25.67,South,180,0.0,0.0,90,0.00,CLR,,0.00,0.0,WeatherDisplay:10.37,2013-10-15 08:40:00,
2013-10-15 02:45:00,23.9,21.4,25.67,South,180,0.0,0.0,90,0.00,CLR,,0.00,0.0,WeatherDisplay:10.37,2013-10-15 08:45:00,
2013-10-15 02:50:00,23.9,21.4,25.68,South,180,0.0,0.0,90,0.00,CLR,,0.00,0.0,WeatherDisplay:10.37,2013-10-15 08:50:00,
2013-10-15 02:55:00,23.7,21.2,25.67,South,180,0.0,0.0,90,0.00,CLR,,0.00,0.0,WeatherDisplay:10.37,2013-10-15 08:55:00,
2013-10-15 03:00:00,23.7,21.2,25.67,South,180,0.0,0.0,90,0.00,CLR,,0.00,0.0,WeatherDisplay:10.37,2013-10-15 09:00:00,
2013-10-15 03:05:00,23.7,21.2,25.68,South,180,0.0,0.0,90,0.00,CLR,,0.00,0.0,WeatherDisplay:10.37,2013-10-15 09:05:00,
2013-10-15 03:10:00,23.5,21.0,25.68,South,180,0.0,0.0,90,0.00,CLR,,0.00,0.0,WeatherDisplay:10.37,2013-10-15 09:10:00,
2013-10-15 03:15:00,23.5,21.0,25.67,South,180,0.0,0.0,90,0.00,CLR,,0.00,0.0,WeatherDisplay:10.37,2013-10-15 09:15:00,
2013-10-15 03:20:00,23.4,20.9,25.67,South,180,0.0,0.0,90,0.00,CLR,,0.00,0.0,WeatherDisplay:10.37,2013-10-15 09:20:00,
2013-10-15 03:25:00,23.4,20.9,25.67,South,180,0.0,0.0,90,0.00,CLR,,0.00,0.0,WeatherDisplay:10.37,2013-10-15 09:25:00,
2013-10-15 03:30:00,23.2,20.7,25.67,South,180,0.0,0.0,90,0.00,CLR,,0.00,0.0,WeatherDisplay:10.37,2013-10-15 09:30:00,
2013-10-15 03:35:00,23.2,20.7,25.68,South,180,0.0,0.0,90,0.00,CLR,,0.00,0.0,WeatherDisplay:10.37,2013-10-15 09:35:00,
2013-10-15 03:40:00,23.2,20.7,25.67,South,180,0.0,0.0,90,0.00,CLR,,0.00,0.0,WeatherDisplay:10.37,2013-10-15 09:40:00,
2013-10-15 03:45:00,23.2,20.7,25.67,South,180,0.0,0.0,90,0.00,CLR,,0.00,0.0,WeatherDisplay:10.37,2013-10-15 09:45:00,
2013-10-15 03:50:00,23.2,20.7,25.67,South,180,0.0,0.0,90,0.00,CLR,,0.00,0.0,WeatherDisplay:10.37,2013-10-15 09:50:00,
2013-10-15 03:55:00,23.0,20.5,25.67,South,180,0.0,0.0,90,0.00,CLR,,0.00,0.0,WeatherDisplay:10.37,2013-10-15 09:55:00,
2013-10-15 04:00:00,23.0,20.5,25.67,South,180,0.0,0.0,90,0.00,CLR,,0.00,0.0,WeatherDisplay:10.37,2013-10-15 10:00:00,
2013-10-15 04:05:00,23.0,20.5,25.68,South,180,0.0,0.0,90,0.00,CLR,,0.00,0.0,WeatherDisplay:10.37,2013-10-15 10:05:00,
2013-10-15 04:10:00,23.0,20.5,25.67,South,180,0.0,0.0,90,0.00,CLR,,0.00,0.0,WeatherDisplay:10.37,2013-10-15 10:10:00,
2013-10-15 04:15:00,22.8,20.3,25.67,South,180,0.0,0.0,90,0.00,CLR,,0.00,0.0,WeatherDisplay:10.37,2013-10-15 10:15:00,
2013-10-15 04:20:00,22.8,20.3,25.67,South,180,0.0,0.0,90,0.00,CLR,,0.00,0.0,WeatherDisplay:10.37,2013-10-15 10:20:00,
2013-10-15 04:25:00,22.8,20.3,25.67,South,180,0.0,0.0,90,0.00,CLR,,0.00,0.0,WeatherDisplay:10.37,2013-10-15 10:25:00,
2013-10-15 04:30:00,22.6,20.1,25.67,South,180,0.0,0.0,90,0.00,CLR,,0.00,0.0,WeatherDisplay:10.37,2013-10-15 10:30:00,
2013-10-15 04:35:00,22.6,20.1,25.67,South,180,0.0,0.0,90,0.00,CLR,,0.00,0.0,WeatherDisplay:10.37,2013-10-15 10:35:00,
2013-10-15 04:40:00,22.8,20.3,25.67,South,180,0.0,0.0,90,0.00,CLR,,0.00,0.0,WeatherDisplay:10.37,2013-10-15 10:40:00,
2013-10-15 04:45:00,23.0,20.5,25.67,South,180,0.0,0.0,90,0.00,CLR,,0.00,0.0,WeatherDisplay:10.37,2013-10-15 10:45:00,
2013-10-15 04:50:00,22.8,20.3,25.67,South,180,0.0,0.0,90,0.00,CLR,,0.00,0.0,WeatherDisplay:10.37,2013-10-15 10:50:00,
2013-10-15 04:55:00,22.8,20.3,25.66,South,180,0.0,0.0,90,0.00,CLR,,0.00,0.0,WeatherDisplay:10.37,2013-10-15 10:55:00,
2013-10-15 05:00:00,22.8,20.3,25.67,South,180,0.0,0.0,90,0.00,CLR,,0.00,0.0,WeatherDisplay:10.37,2013-10-15 11:00:00,
2013-10-15 05:05:00,22.8,20.3,25.66,South,180,0.0,0.0,90,0.00,CLR,,0.00,0.0,WeatherDisplay:10.37,2013-10-15 11:05:00,
2013-10-15 05:10:00,23.0,20.5,25.66,South,180,0.0,0.0,90,0.00,CLR,,0.00,0.0,WeatherDisplay:10.37,2013-10-15 11:10:00,
2013-10-15 05:15:00,23.0,20.5,25.66,South,180,0.0,0.0,90,0.00,CLR,,0.00,0.0,WeatherDisplay:10.37,2013-10-15 11:15:00,
2013-10-15 05:20:00,23.0,20.5,25.66,South,180,0.0,0.0,90,0.00,CLR,,0.00,0.0,WeatherDisplay:10.37,2013-10-15 11:20:00,
2013-10-15 05:25:00,23.0,20.5,25.66,South,180,0.0,0.0,90,0.00,CLR,,0.00,0.0,WeatherDisplay:10.37,2013-10-15 11:25:00,
2013-10-15 05:30:00,22.8,20.3,25.66,South,180,0.0,0.0,90,0.00,CLR,,0.00,0.0,WeatherDisplay:10.37,2013-10-15 11:30:00,
2013-10-15 05:35:00,22.6,20.1,25.66,South,180,0.0,0.0,90,0.00,CLR,,0.00,0.0,WeatherDisplay:10.37,2013-10-15 11:35:00,
2013-10-15 05:40:00,22.5,20.0,25.66,South,180,0.0,0.0,90,0.00,CLR,,0.00,0.0,WeatherDisplay:10.37,2013-10-15 11:40:00,
2013-10-15 05:45:00,22.3,19.8,25.66,South,180,0.0,0.0,90,0.00,CLR,,0.00,0.0,WeatherDisplay:10.37,2013-10-15 11:45:00,
2013-10-15 05:50:00,22.1,19.6,25.66,South,180,0.0,0.0,90,0.00,CLR,,0.00,0.0,WeatherDisplay:10.37,2013-10-15 11:50:00,
2013-10-15 05:55:00,21.9,19.4,25.66,South,180,0.0,0.0,90,0.00,CLR,,0.00,0.0,WeatherDisplay:10.37,2013-10-15 11:55:00,
2013-10-15 06:00:00,21.9,19.4,25.66,South,180,0.0,0.0,90,0.00,CLR,,0.00,0.0,WeatherDisplay:10.37,2013-10-15 12:00:00,
2013-10-15 06:05:00,21.9,19.4,25.66,South,180,0.0,0.0,90,0.00,CLR,,0.00,0.0,WeatherDisplay:10.37,2013-10-15 12:05:00,
2013-10-15 06:10:00,21.9,19.4,25.65,South,180,0.0,0.0,90,0.00,CLR,,0.00,0.0,WeatherDisplay:10.37,2013-10-15 12:10:00,
2013-10-15 06:15:00,21.9,19.4,25.65,South,180,0.0,0.0,90,0.00,CLR,,0.00,0.0,WeatherDisplay:10.37,2013-10-15 12:15:00,
2013-10-15 06:20:00,21.7,19.3,25.65,South,180,0.0,0.0,90,0.00,CLR,,0.00,0.0,WeatherDisplay:10.37,2013-10-15 12:20:00,
2013-10-15 06:25:00,21.6,19.1,25.65,South,180,0.0,0.0,90,0.00,CLR,,0.00,0.0,WeatherDisplay:10.37,2013-10-15 12:25:00,
2013-10-15 06:30:00,21.6,19.1,25.66,South,180,0.0,0.0,90,0.00,CLR,,0.00,0.0,WeatherDisplay:10.37,2013-10-15 12:30:00,
2013-10-15 06:35:00,21.6,19.1,25.65,South,180,0.0,0.0,90,0.00,CLR,,0.00,0.0,WeatherDisplay:10.37,2013-10-15 12:35:00,
2013-10-15 06:40:00,21.6,19.1,25.65,South,180,0.0,0.0,90,0.00,CLR,,0.00,0.0,WeatherDisplay:10.37,2013-10-15 12:40:00,
2013-10-15 06:45:00,21.7,19.3,25.65,South,180,0.0,0.0,90,0.00,CLR,,0.00,0.0,WeatherDisplay:10.37,2013-10-15 12:45:00,
2013-10-15 06:50:00,21.9,19.4,25.64,South,180,0.0,0.0,90,0.00,CLR,,0.00,0.0,WeatherDisplay:10.37,2013-10-15 12:50:00,
2013-10-15 06:55:00,21.9,19.4,25.65,South,180,0.0,0.0,90,0.00,CLR,,0.00,0.0,WeatherDisplay:10.37,2013-10-15 12:55:00,
2013-10-15 07:00:00,21.9,19.4,25.65,South,180,0.0,0.0,90,0.00,CLR,,0.00,0.0,WeatherDisplay:10.37,2013-10-15 13:00:00,
2013-10-15 07:05:00,21.9,19.4,25.65,South,180,0.0,0.0,90,0.00,CLR,,0.00,0.0,WeatherDisplay:10.37,2013-10-15 13:05:00,
2013-10-15 07:10:00,21.9,19.4,25.65,South,180,0.0,0.0,90,0.00,CLR,,0.00,0.0,WeatherDisplay:10.37,2013-10-15 13:10:00,
2013-10-15 07:15:00,22.1,19.6,25.64,South,180,0.0,0.0,90,0.00,CLR,,0.00,0.0,WeatherDisplay:10.37,2013-10-15 13:15:00,
2013-10-15 07:20:00,22.1,19.6,25.64,South,180,0.0,0.0,90,0.00,CLR,,0.00,0.0,WeatherDisplay:10.37,2013-10-15 13:20:00,
2013-10-15 07:25:00,22.1,19.6,25.64,South,180,0.0,0.0,90,0.00,CLR,,0.00,0.0,WeatherDisplay:10.37,2013-10-15 13:25:00,
2013-10-15 07:30:00,21.9,19.4,25.64,South,180,0.0,0.0,90,0.00,CLR,,0.00,0.0,WeatherDisplay:10.37,2013-10-15 13:30:00,
2013-10-15 07:35:00,21.9,19.4,25.64,South,180,0.0,0.0,90,0.00,CLR,,0.00,0.0,WeatherDisplay:10.37,2013-10-15 13:35:00,
2013-10-15 07:40:00,21.7,19.3,25.64,South,180,0.0,0.0,90,0.00,CLR,,0.00,0.0,WeatherDisplay:10.37,2013-10-15 13:40:00,
2013-10-15 07:45:00,21.6,19.1,25.64,South,180,0.0,0.0,90,0.00,CLR,,0.00,0.0,WeatherDisplay:10.37,2013-10-15 13:45:00,
2013-10-15 07:50:00,21.6,19.1,25.64,South,180,0.0,0.0,90,0.00,CLR,,0.00,0.0,WeatherDisplay:10.37,2013-10-15 13:50:00,
2013-10-15 07:55:00,21.4,18.9,25.64,South,180,0.0,0.0,90,0.00,CLR,,0.00,0.0,WeatherDisplay:10.37,2013-10-15 13:55:00,
2013-10-15 08:00:00,21.2,18.7,25.64,South,180,0.0,0.0,90,0.00,CLR,,0.00,0.0,WeatherDisplay:10.37,2013-10-15 14:00:00,
2013-10-15 08:05:00,21.2,18.7,25.64,South,180,0.0,0.0,90,0.00,CLR,,0.00,0.0,WeatherDisplay:10.37,2013-10-15 14:05:00,
2013-10-15 08:10:00,21.4,18.9,25.64,South,180,0.0,0.0,90,0.00,CLR,,0.00,0.0,WeatherDisplay:10.37,2013-10-15 14:10:00,
2013-10-15 08:15:00,21.4,18.9,25.64,South,180,0.0,0.0,90,0.00,CLR,,0.00,0.0,WeatherDisplay:10.37,2013-10-15 14:15:00,
2013-10-15 08:20:00,21.6,19.1,25.65,South,180,0.0,0.0,90,0.00,CLR,,0.00,0.0,WeatherDisplay:10.37,2013-10-15 14:20:00,
2013-10-15 08:25:00,21.6,19.1,25.64,South,180,0.0,0.0,90,0.00,CLR,,0.00,0.0,WeatherDisplay:10.37,2013-10-15 14:25:00,
2013-10-15 08:30:00,21.9,19.4,25.64,South,180,0.0,0.0,90,0.00,CLR,,0.00,0.0,WeatherDisplay:10.37,2013-10-15 14:30:00,
2013-10-15 08:35:00,21.9,19.4,25.64,South,180,0.0,0.0,90,0.00,CLR,,0.00,0.0,WeatherDisplay:10.37,2013-10-15 14:35:00,
2013-10-15 08:40:00,22.1,19.6,25.64,South,180,0.0,0.0,90,0.00,CLR,,0.00,0.0,WeatherDisplay:10.37,2013-10-15 14:40:00,
2013-10-15 08:45:00,22.3,19.8,25.64,South,180,0.0,0.0,90,0.00,CLR,,0.00,0.0,WeatherDisplay:10.37,2013-10-15 14:45:00,
2013-10-15 08:50:00,22.5,20.0,25.64,South,180,0.0,0.0,90,0.00,CLR,,0.00,0.0,WeatherDisplay:10.37,2013-10-15 14:50:00,
2013-10-15 08:55:00,22.6,20.1,25.64,South,180,0.0,0.0,90,0.00,CLR,,0.00,0.0,WeatherDisplay:10.37,2013-10-15 14:55:00,
2013-10-15 09:00:00,22.8,20.3,25.64,South,180,0.0,0.0,90,0.00,OVC,,0.00,0.0,WeatherDisplay:10.37,2013-10-15 15:00:00,
2013-10-15 09:05:00,22.8,20.3,25.64,South,180,0.0,0.0,90,0.00,OVC,,0.00,0.0,WeatherDisplay:10.37,2013-10-15 15:05:00,
2013-10-15 09:10:00,23.4,20.9,25.64,South,180,0.0,0.0,90,0.00,OVC,,0.00,0.0,WeatherDisplay:10.37,2013-10-15 15:10:00,
2013-10-15 09:15:00,23.5,21.0,25.64,South,180,0.0,0.0,90,0.00,OVC,,0.00,0.0,WeatherDisplay:10.37,2013-10-15 15:15:00,
2013-10-15 09:20:00,23.9,21.4,25.64,South,180,0.0,0.0,90,0.00,OVC,,0.00,0.0,WeatherDisplay:10.37,2013-10-15 15:20:00,
2013-10-15 09:25:00,24.3,21.8,25.64,South,180,0.0,0.0,90,0.00,OVC,,0.00,0.0,WeatherDisplay:10.37,2013-10-15 15:25:00,
2013-10-15 09:30:00,24.8,22.5,25.64,South,180,0.0,0.0,91,0.00,OVC,,0.00,0.0,WeatherDisplay:10.37,2013-10-15 15:30:00,
2013-10-15 09:35:00,25.3,23.1,25.64,South,180,0.0,0.0,91,0.00,OVC,,0.00,0.0,WeatherDisplay:10.37,2013-10-15 15:35:00,
2013-10-15 09:40:00,25.7,23.4,25.64,South,180,0.0,0.0,91,0.00,OVC,,0.00,0.0,WeatherDisplay:10.37,2013-10-15 15:40:00,
2013-10-15 09:45:00,26.4,24.1,25.64,South,180,0.0,0.0,91,0.00,OVC,,0.00,0.0,WeatherDisplay:10.37,2013-10-15 15:45:00,
2013-10-15 09:50:00,27.0,24.7,25.64,South,180,0.0,0.0,91,0.00,OVC,,0.00,0.0,WeatherDisplay:10.37,2013-10-15 15:50:00,
2013-10-15 09:55:00,27.5,25.2,25.64,South,180,0.0,0.0,91,0.00,OVC,,0.00,0.0,WeatherDisplay:10.37,2013-10-15 15:55:00,
2013-10-15 10:00:00,28.0,26.0,25.64,South,180,0.0,0.0,92,0.00,OVC,,0.00,0.0,WeatherDisplay:10.37,2013-10-15 16:00:00,
2013-10-15 10:05:00,28.0,26.0,25.64,South,180,0.0,0.0,92,0.00,OVC,,0.00,0.0,WeatherDisplay:10.37,2013-10-15 16:05:00,
2013-10-15 10:10:00,29.3,27.3,25.64,South,180,0.0,0.0,92,0.00,OVC,,0.00,0.0,WeatherDisplay:10.37,2013-10-15 16:10:00,
2013-10-15 10:15:00,30.4,28.3,25.64,South,180,0.0,0.0,92,0.00,OVC,,0.00,0.0,WeatherDisplay:10.37,2013-10-15 16:15:00,
2013-10-15 10:20:00,31.3,29.2,25.63,South,180,0.0,0.0,92,0.00,OVC,,0.00,0.0,WeatherDisplay:10.37,2013-10-15 16:20:00,
2013-10-15 10:25:00,32.4,30.3,25.63,South,180,0.0,0.0,92,0.00,OVC,,0.00,0.0,WeatherDisplay:10.37,2013-10-15 16:25:00,
2013-10-15 10:30:00,33.1,31.0,25.63,South,180,0.0,0.0,92,0.00,OVC,,0.00,0.0,WeatherDisplay:10.37,2013-10-15 16:30:00,
2013-10-15 10:35:00,33.6,31.5,25.63,South,180,0.0,0.0,92,0.00,OVC,,0.00,0.0,WeatherDisplay:10.37,2013-10-15 16:35:00,
2013-10-15 10:40:00,34.3,32.3,25.63,South,180,0.0,0.0,92,0.00,OVC,,0.00,0.0,WeatherDisplay:10.37,2013-10-15 16:40:00,
2013-10-15 10:45:00,34.9,32.5,25.62,South,180,0.0,0.0,91,0.00,OVC,,0.00,0.0,WeatherDisplay:10.37,2013-10-15 16:45:00,
2013-10-15 10:50:00,35.6,32.7,25.62,South,180,0.0,0.0,89,0.00,OVC,,0.00,0.0,WeatherDisplay:10.37,2013-10-15 16:50:00,
2013-10-15 10:55:00,36.3,32.8,25.62,South,180,0.0,0.0,87,0.00,OVC,,0.00,0.0,WeatherDisplay:10.37,2013-10-15 16:55:00,
2013-10-15 11:00:00,36.7,32.6,25.62,South,180,0.0,0.0,85,0.00,OVC,,0.00,0.0,WeatherDisplay:10.37,2013-10-15 17:00:00,
2013-10-15 11:05:00,36.7,32.6,25.62,South,180,0.0,0.0,85,0.00,OVC,,0.00,0.0,WeatherDisplay:10.37,2013-10-15 17:05:00,
2013-10-15 11:10:00,38.1,32.2,25.62,South,180,0.0,0.0,79,0.00,OVC,,0.00,0.0,WeatherDisplay:10.37,2013-10-15 17:10:00,
2013-10-15 11:15:00,38.7,31.7,25.62,North,0,0.0,0.0,76,0.00,OVC,,0.00,0.0,WeatherDisplay:10.37,2013-10-15 17:15:00,
2013-10-15 11:20:00,39.7,32.5,25.62,SW,225,0.0,0.0,75,0.00,OVC,,0.00,0.0,WeatherDisplay:10.37,2013-10-15 17:20:00,
2013-10-15 11:25:00,41.0,33.0,25.62,West,270,0.0,0.0,73,0.01,RA,,0.01,0.0,WeatherDisplay:10.37,2013-10-15 17:25:00,
2013-10-15 11:30:00,41.9,31.4,25.61,NE,45,1.2,1.2,66,0.01,RA,,0.01,0.0,WeatherDisplay:10.37,2013-10-15 17:30:00,
2013-10-15 11:35:00,42.6,30.9,25.61,East,90,0.0,0.0,63,0.01,OVC,,0.01,0.0,WeatherDisplay:10.37,2013-10-15 17:35:00,
2013-10-15 11:40:00,43.3,30.8,25.61,NE,45,0.0,0.0,61,0.01,OVC,,0.01,0.0,WeatherDisplay:10.37,2013-10-15 17:40:00,
2013-10-15 11:45:00,43.5,28.4,25.61,NE,45,3.5,3.5,55,0.01,OVC,,0.01,0.0,WeatherDisplay:10.37,2013-10-15 17:45:00,
2013-10-15 11:50:00,43.2,28.1,25.60,NE,45,2.3,2.3,55,0.01,OVC,,0.01,0.0,WeatherDisplay:10.37,2013-10-15 17:50:00,
2013-10-15 11:55:00,43.3,28.2,25.60,East,90,3.5,3.5,55,0.01,OVC,,0.01,0.0,WeatherDisplay:10.37,2013-10-15 17:55:00,
2013-10-15 12:00:00,43.5,28.8,25.60,East,90,1.2,0.0,56,0.01,OVC,,0.01,0.0,WeatherDisplay:10.37,2013-10-15 18:00:00,
2013-10-15 12:05:00,43.5,28.8,25.60,East,90,0.0,0.0,56,0.01,OVC,,0.01,0.0,WeatherDisplay:10.37,2013-10-15 18:05:00,
2013-10-15 12:10:00,44.6,29.0,25.59,SW,225,1.2,0.0,54,0.01,OVC,,0.01,0.0,WeatherDisplay:10.37,2013-10-15 18:10:00,
2013-10-15 12:15:00,45.1,29.0,25.60,North,0,0.0,0.0,53,0.01,OVC,,0.01,0.0,WeatherDisplay:10.37,2013-10-15 18:15:00,
2013-10-15 12:20:00,45.9,29.2,25.59,West,270,3.5,0.0,52,0.01,OVC,,0.01,0.0,WeatherDisplay:10.37,2013-10-15 18:20:00,
2013-10-15 12:25:00,46.8,29.6,25.59,West,270,1.2,0.0,51,0.00,OVC,,0.01,0.0,WeatherDisplay:10.37,2013-10-15 18:25:00,
2013-10-15 12:30:00,47.8,29.6,25.58,West,270,0.0,0.0,49,0.00,OVC,,0.01,0.0,WeatherDisplay:10.37,2013-10-15 18:30:00,
2013-10-15 12:35:00,48.9,30.1,25.58,NW,315,3.5,3.5,48,0.00,OVC,,0.01,0.0,WeatherDisplay:10.37,2013-10-15 18:35:00,
2013-10-15 12:40:00,49.8,29.8,25.58,South,180,2.3,2.3,46,0.00,OVC,,0.01,0.0,WeatherDisplay:10.37,2013-10-15 18:40:00,
2013-10-15 12:45:00,50.4,28.7,25.58,East,90,2.3,0.0,43,0.00,OVC,,0.01,0.0,WeatherDisplay:10.37,2013-10-15 18:45:00,
2013-10-15 12:50:00,50.5,29.4,25.58,East,90,1.2,0.0,44,0.00,OVC,,0.01,0.0,WeatherDisplay:10.37,2013-10-15 18:50:00,
2013-10-15 12:55:00,51.1,29.9,25.57,WSW,248,1.2,1.6,44,0.00,OVC,,0.01,0.0,WeatherDisplay:10.37,2013-10-15 18:55:00,
2013-10-15 13:00:00,51.6,29.3,25.57,WSW,248,4.6,4.6,42,0.00,OVC,,0.01,0.0,WeatherDisplay:10.37,2013-10-15 19:00:00,
2013-10-15 13:05:00,51.6,29.3,25.57,WSW,248,3.5,3.5,42,0.00,OVC,,0.01,0.0,WeatherDisplay:10.37,2013-10-15 19:05:00,
2013-10-15 13:10:00,52.2,27.3,25.57,North,0,4.6,4.6,38,0.00,OVC,,0.01,0.0,WeatherDisplay:10.37,2013-10-15 19:10:00,
2013-10-15 13:15:00,51.4,27.9,25.57,North,0,2.3,0.0,40,0.00,OVC,,0.01,0.0,WeatherDisplay:10.37,2013-10-15 19:15:00,
2013-10-15 13:20:00,51.4,27.9,25.57,North,0,3.5,3.5,40,0.00,OVC,,0.01,0.0,WeatherDisplay:10.37,2013-10-15 19:20:00,
2013-10-15 13:25:00,52.0,28.4,25.56,NE,45,1.2,0.0,40,0.00,OVC,,0.01,0.0,WeatherDisplay:10.37,2013-10-15 19:25:00,
2013-10-15 13:30:00,52.0,28.4,25.56,South,180,1.2,0.0,40,0.00,OVC,,0.01,0.0,WeatherDisplay:10.37,2013-10-15 19:30:00,
2013-10-15 13:35:00,51.6,28.1,25.56,East,90,1.2,1.2,40,0.00,OVC,,0.01,0.0,WeatherDisplay:10.37,2013-10-15 19:35:00,
2013-10-15 13:40:00,51.1,28.2,25.55,South,180,1.2,0.0,41,0.00,OVC,,0.01,0.0,WeatherDisplay:10.37,2013-10-15 19:40:00,
2013-10-15 13:45:00,51.1,27.6,25.54,NW,315,3.5,3.5,40,0.00,OVC,,0.01,0.0,WeatherDisplay:10.37,2013-10-15 19:45:00,
2013-10-15 13:50:00,50.9,26.8,25.54,SW,225,3.5,3.5,39,0.00,OVC,,0.01,0.0,WeatherDisplay:10.37,2013-10-15 19:50:00,
2013-10-15 13:55:00,50.4,26.3,25.54,East,90,3.5,3.5,39,0.00,OVC,,0.01,0.0,WeatherDisplay:10.37,2013-10-15 19:55:00,
2013-10-15 14:00:00,50.0,26.6,25.54,SW,225,2.3,2.3,40,0.00,OVC,,0.01,0.0,WeatherDisplay:10.37,2013-10-15 20:00:00,
2013-10-15 14:05:00,50.0,26.6,25.53,SW,225,2.3,2.3,40,0.00,OVC,,0.01,0.0,WeatherDisplay:10.37,2013-10-15 20:05:00,
2013-10-15 14:10:00,50.2,26.8,25.53,West,270,4.5,4.5,40,0.00,OVC,,0.01,0.0,WeatherDisplay:10.37,2013-10-15 20:10:00,
2013-10-15 14:15:00,50.4,26.3,25.53,East,90,1.2,0.0,39,0.00,OVC,,0.01,0.0,WeatherDisplay:10.37,2013-10-15 20:15:00,
2013-10-15 14:20:00,50.2,26.1,25.53,South,180,3.5,0.0,39,0.00,OVC,,0.01,0.0,WeatherDisplay:10.37,2013-10-15 20:20:00,
2013-10-15 14:25:00,50.4,26.3,25.53,SW,225,5.8,5.8,39,0.00,OVC,,0.01,0.0,WeatherDisplay:10.37,2013-10-15 20:25:00,
2013-10-15 14:30:00,50.7,26.6,25.53,North,0,3.5,3.5,39,0.00,OVC,,0.01,0.0,WeatherDisplay:10.37,2013-10-15 20:30:00,
2013-10-15 14:35:00,51.4,27.3,25.52,SW,225,1.2,1.2,39,0.00,OVC,,0.01,0.0,WeatherDisplay:10.37,2013-10-15 20:35:00,
2013-10-15 14:41:00,52.0,27.1,25.52,NNW,338,1.2,0.0,38,0.00,OVC,,0.01,0.0,WeatherDisplay:10.37,2013-10-15 20:41:00,
2013-10-15 14:46:00,52.2,26.6,25.52,WSW,248,2.3,0.0,37,0.00,OVC,,0.01,0.0,WeatherDisplay:10.37,2013-10-15 20:46:00,
2013-10-15 14:51:00,52.0,26.5,25.52,West,270,1.2,0.0,37,0.00,OVC,,0.01,0.0,WeatherDisplay:10.37,2013-10-15 20:51:00,
2013-10-15 14:56:00,52.0,27.1,25.52,North,0,1.2,1.2,38,0.00,OVC,,0.01,0.0,WeatherDisplay:10.37,2013-10-15 20:56:00,
2013-10-15 15:01:00,52.0,26.5,25.51,West,270,3.5,0.0,37,0.00,OVC,,0.01,0.0,WeatherDisplay:10.37,2013-10-15 21:01:00,
2013-10-15 15:06:00,52.0,26.5,25.51,West,270,1.2,0.0,37,0.00,OVC,,0.01,0.0,WeatherDisplay:10.37,2013-10-15 21:06:00,
2013-10-15 15:11:00,52.3,26.8,25.51,NW,315,3.5,3.5,37,0.00,OVC,,0.01,0.0,WeatherDisplay:10.37,2013-10-15 21:11:00,
2013-10-15 15:16:00,52.5,27.6,25.51,SW,225,2.3,2.3,38,0.00,OVC,,0.01,0.0,WeatherDisplay:10.37,2013-10-15 21:16:00,
2013-10-15 15:21:00,52.7,26.5,25.50,East,90,2.3,0.0,36,0.00,OVC,,0.01,0.0,WeatherDisplay:10.37,2013-10-15 21:21:00,
2013-10-15 15:26:00,52.7,26.5,25.50,South,180,1.2,1.2,36,0.00,OVC,,0.01,0.0,WeatherDisplay:10.37,2013-10-15 21:26:00,
2013-10-15 15:31:00,53.1,26.1,25.50,NW,315,2.3,2.3,35,0.00,OVC,,0.01,0.0,WeatherDisplay:10.37,2013-10-15 21:31:00,
2013-10-15 15:36:00,53.2,25.6,25.50,North,0,2.3,2.3,34,0.00,OVC,,0.01,0.0,WeatherDisplay:10.37,2013-10-15 21:36:00,
2013-10-15 15:41:00,53.4,25.7,25.50,NW,315,3.5,3.5,34,0.00,OVC,,0.01,0.0,WeatherDisplay:10.37,2013-10-15 21:41:00,
2013-10-15 15:46:00,53.8,26.7,25.50,SE,135,2.3,0.0,35,0.00,OVC,,0.01,0.0,WeatherDisplay:10.37,2013-10-15 21:46:00,
2013-10-15 15:51:00,54.3,26.5,25.50,SW,225,3.5,3.5,34,0.00,OVC,,0.01,0.0,WeatherDisplay:10.37,2013-10-15 21:51:00,
2013-10-15 15:56:00,55.0,26.4,25.49,North,0,2.3,2.3,33,0.00,OVC,,0.01,0.0,WeatherDisplay:10.37,2013-10-15 21:56:00,
2013-10-15 16:01:00,55.4,27.5,25.50,NW,315,3.5,0.0,34,0.00,OVC,,0.01,0.0,WeatherDisplay:10.37,2013-10-15 22:01:00,
2013-10-15 16:06:00,55.4,27.5,25.49,NW,315,2.3,0.0,34,0.00,OVC,,0.01,0.0,WeatherDisplay:10.37,2013-10-15 22:06:00,
2013-10-15 16:11:00,55.8,26.3,25.49,SW,225,2.3,2.3,32,0.00,OVC,,0.01,0.0,WeatherDisplay:10.37,2013-10-15 22:11:00,
2013-10-15 16:16:00,55.8,25.5,25.49,North,0,3.5,3.5,31,0.00,OVC,,0.01,0.0,WeatherDisplay:10.37,2013-10-15 22:16:00,
2013-10-15 16:21:00,55.8,26.3,25.50,NW,315,0.0,0.0,32,0.00,OVC,,0.01,0.0,WeatherDisplay:10.37,2013-10-15 22:21:00,
2013-10-15 16:26:00,56.1,25.9,25.49,SW,225,3.5,3.5,31,0.00,OVC,,0.01,0.0,WeatherDisplay:10.37,2013-10-15 22:26:00,
2013-10-15 16:31:00,56.5,26.2,25.49,North,0,1.2,1.2,31,0.00,OVC,,0.01,0.0,WeatherDisplay:10.37,2013-10-15 22:31:00,
2013-10-15 16:36:00,56.7,27.1,25.48,SW,225,0.0,0.0,32,0.00,OVC,,0.01,0.0,WeatherDisplay:10.37,2013-10-15 22:36:00,
2013-10-15 16:41:00,56.8,27.3,25.48,SW,225,0.0,0.0,32,0.00,OVC,,0.01,0.0,WeatherDisplay:10.37,2013-10-15 22:41:00,
2013-10-15 16:46:00,57.0,26.6,25.49,SW,225,0.0,0.0,31,0.00,OVC,,0.01,0.0,WeatherDisplay:10.37,2013-10-15 22:46:00,
2013-10-15 16:51:00,57.2,26.8,25.48,West,270,0.0,0.0,31,0.00,OVC,,0.01,0.0,WeatherDisplay:10.37,2013-10-15 22:51:00,
2013-10-15 16:56:00,57.2,26.8,25.49,NW,315,2.3,2.3,31,0.00,OVC,,0.01,0.0,WeatherDisplay:10.37,2013-10-15 22:56:00,
2013-10-15 17:01:00,56.5,24.6,25.48,NW,315,1.2,0.0,29,0.00,CLR,,0.01,0.0,WeatherDisplay:10.37,2013-10-15 23:01:00,
2013-10-15 17:06:00,56.5,24.6,25.48,NW,315,1.2,0.0,29,0.00,CLR,,0.01,0.0,WeatherDisplay:10.37,2013-10-15 23:06:00,
2013-10-15 17:11:00,55.2,25.8,25.48,West,270,1.2,1.2,32,0.00,CLR,,0.01,0.0,WeatherDisplay:10.37,2013-10-15 23:11:00,
2013-10-15 17:16:00,55.0,25.7,25.48,NW,315,2.3,2.3,32,0.00,CLR,,0.01,0.0,WeatherDisplay:10.37,2013-10-15 23:16:00,
2013-10-15 17:21:00,54.9,25.5,25.48,SW,225,1.2,0.0,32,0.00,CLR,,0.01,0.0,WeatherDisplay:10.37,2013-10-15 23:21:00,
2013-10-15 17:26:00,55.0,25.7,25.48,NW,315,1.2,0.0,32,0.00,CLR,,0.01,0.0,WeatherDisplay:10.37,2013-10-15 23:26:00,
2013-10-15 17:31:00,54.3,25.1,25.48,West,270,1.2,1.2,32,0.00,CLR,,0.01,0.0,WeatherDisplay:10.37,2013-10-15 23:31:00,
2013-10-15 17:36:00,53.2,25.6,25.48,NW,315,1.6,1.6,34,0.00,CLR,,0.01,0.0,WeatherDisplay:10.37,2013-10-15 23:36:00,
2013-10-15 17:41:00,52.0,23.7,25.48,NW,315,1.2,1.2,33,0.00,CLR,,0.01,0.0,WeatherDisplay:10.37,2013-10-15 23:41:00,
2013-10-15 17:46:00,50.7,21.9,25.48,South,180,1.2,0.0,32,0.00,CLR,,0.01,0.0,WeatherDisplay:10.37,2013-10-15 23:46:00,
2013-10-15 17:51:00,50.2,21.4,25.48,SW,225,1.2,1.2,32,0.00,CLR,,0.01,0.0,WeatherDisplay:10.37,2013-10-15 23:51:00,
2013-10-15 17:56:00,49.3,22.1,25.48,NW,315,1.2,0.0,34,0.00,CLR,,0.01,0.0,WeatherDisplay:10.37,2013-10-15 23:56:00,
2013-10-15 18:01:00,48.6,22.8,25.48,West,270,2.3,2.3,36,0.00,CLR,,0.01,0.0,WeatherDisplay:10.37,2013-10-16 00:01:00,
2013-10-15 18:06:00,46.9,23.8,25.48,West,270,1.2,0.0,40,0.00,CLR,,0.01,0.0,WeatherDisplay:10.37,2013-10-16 00:06:00,
2013-10-15 18:11:00,45.5,22.5,25.48,SW,225,1.2,0.0,40,0.00,CLR,,0.01,0.0,WeatherDisplay:10.37,2013-10-16 00:11:00,
2013-10-15 18:16:00,44.6,22.9,25.48,SW,225,0.0,0.0,42,0.00,CLR,,0.01,0.0,WeatherDisplay:10.37,2013-10-16 00:16:00,
2013-10-15 18:21:00,44.6,22.9,25.48,SW,225,0.0,0.0,42,0.00,CLR,,0.01,0.0,WeatherDisplay:10.37,2013-10-16 00:21:00,
2013-10-15 18:26:00,42.4,21.5,25.48,SW,225,0.0,0.0,43,0.00,CLR,,0.01,0.0,WeatherDisplay:10.37,2013-10-16 00:26:00,
2013-10-15 18:31:00,41.7,21.4,25.48,SW,225,1.2,1.2,44,0.00,CLR,,0.01,0.0,WeatherDisplay:10.37,2013-10-16 00:31:00,
2013-10-15 18:36:00,40.8,21.1,25.48,SW,225,0.0,0.0,45,0.00,CLR,,0.01,0.0,WeatherDisplay:10.37,2013-10-16 00:36:00,
2013-10-15 18:41:00,39.9,20.8,25.48,SW,225,0.0,0.0,46,0.00,CLR,,0.01,0.0,WeatherDisplay:10.37,2013-10-16 00:41:00,
2013-10-15 18:46:00,39.2,20.1,25.48,SW,225,0.0,0.0,46,0.00,CLR,,0.01,0.0,WeatherDisplay:10.37,2013-10-16 00:46:00,
2013-10-15 18:51:00,38.3,19.8,25.48,SW,225,0.0,0.0,47,0.00,CLR,,0.01,0.0,WeatherDisplay:10.37,2013-10-16 00:51:00,
2013-10-15 18:56:00,37.6,19.6,25.49,SW,225,0.0,0.0,48,0.00,CLR,,0.01,0.0,WeatherDisplay:10.37,2013-10-16 00:56:00,
2013-10-15 19:01:00,37.2,20.3,25.48,SE,135,3.5,3.5,50,0.00,CLR,,0.01,0.0,WeatherDisplay:10.37,2013-10-16 01:01:00,
2013-10-15 19:06:00,37.2,20.3,25.49,SE,135,3.5,3.5,50,0.00,CLR,,0.01,0.0,WeatherDisplay:10.37,2013-10-16 01:06:00,
2013-10-15 19:11:00,36.5,21.0,25.49,South,180,1.2,0.0,53,0.00,CLR,,0.01,0.0,WeatherDisplay:10.37,2013-10-16 01:11:00,
2013-10-15 19:16:00,36.0,20.9,25.49,South,180,1.2,1.2,54,0.00,CLR,,0.01,0.0,WeatherDisplay:10.37,2013-10-16 01:16:00,
2013-10-15 19:21:00,35.6,21.0,25.49,SW,225,1.2,0.0,55,0.00,CLR,,0.01,0.0,WeatherDisplay:10.37,2013-10-16 01:21:00,
2013-10-15 19:26:00,35.4,21.3,25.49,South,180,1.2,1.2,56,0.00,CLR,,0.01,0.0,WeatherDisplay:10.37,2013-10-16 01:26:00,
2013-10-15 19:31:00,35.1,20.9,25.49,SW,225,1.2,0.0,56,0.00,CLR,,0.01,0.0,WeatherDisplay:10.37,2013-10-16 01:31:00,
2013-10-15 19:36:00,34.7,21.0,25.49,SW,225,0.0,0.0,57,0.00,CLR,,0.01,0.0,WeatherDisplay:10.37,2013-10-16 01:36:00,
2013-10-15 19:41:00,34.3,21.1,25.49,South,180,1.2,0.0,58,0.00,CLR,,0.01,0.0,WeatherDisplay:10.37,2013-10-16 01:41:00,
2013-10-15 19:46:00,34.0,20.7,25.49,South,180,1.2,1.2,58,0.00,CLR,,0.01,0.0,WeatherDisplay:10.37,2013-10-16 01:46:00,
2013-10-15 19:51:00,33.8,21.0,25.49,SE,135,0.0,0.0,59,0.00,CLR,,0.01,0.0,WeatherDisplay:10.37,2013-10-16 01:51:00,
2013-10-15 19:56:00,33.6,20.8,25.49,SW,225,0.0,0.0,59,0.00,CLR,,0.01,0.0,WeatherDisplay:10.37,2013-10-16 01:56:00,
2013-10-15 20:01:00,33.4,21.0,25.49,South,180,0.0,0.0,60,0.00,CLR,,0.01,0.0,WeatherDisplay:10.37,2013-10-16 02:01:00,
2013-10-15 20:06:00,33.4,21.0,25.49,South,180,0.0,0.0,60,0.00,CLR,,0.01,0.0,WeatherDisplay:10.37,2013-10-16 02:06:00,
2013-10-15 20:11:00,32.9,20.9,25.49,South,180,0.0,0.0,61,0.00,CLR,,0.01,0.0,WeatherDisplay:10.37,2013-10-16 02:11:00,
2013-10-15 20:16:00,32.7,20.7,25.49,South,180,0.0,0.0,61,0.00,CLR,,0.01,0.0,WeatherDisplay:10.37,2013-10-16 02:16:00,
2013-10-15 20:21:00,32.4,20.8,25.49,South,180,0.0,0.0,62,0.00,CLR,,0.01,0.0,WeatherDisplay:10.37,2013-10-16 02:21:00,
2013-10-15 20:26:00,32.2,20.6,25.48,SW,225,0.0,0.0,62,0.00,CLR,,0.01,0.0,WeatherDisplay:10.37,2013-10-16 02:26:00,
2013-10-15 20:31:00,32.0,20.4,25.48,West,270,0.0,0.0,62,0.00,CLR,,0.01,0.0,WeatherDisplay:10.37,2013-10-16 02:31:00,
2013-10-15 20:36:00,31.6,20.5,25.48,SW,225,3.5,0.0,63,0.00,CLR,,0.01,0.0,WeatherDisplay:10.37,2013-10-16 02:36:00,
2013-10-15 20:41:00,31.3,20.5,25.48,SW,225,0.0,0.0,64,0.00,CLR,,0.01,0.0,WeatherDisplay:10.37,2013-10-16 02:41:00,
2013-10-15 20:46:00,30.9,20.2,25.48,SW,225,0.0,0.0,64,0.00,CLR,,0.01,0.0,WeatherDisplay:10.37,2013-10-16 02:46:00,
2013-10-15 20:51:00,30.7,20.4,25.49,South,180,0.0,0.0,65,0.00,CLR,,0.01,0.0,WeatherDisplay:10.37,2013-10-16 02:51:00,
2013-10-15 20:56:00,30.6,20.2,25.48,SW,225,1.2,0.0,65,0.00,CLR,,0.01,0.0,WeatherDisplay:10.37,2013-10-16 02:56:00,
2013-10-15 21:01:00,30.2,20.2,25.48,South,180,1.2,1.2,66,0.00,CLR,,0.01,0.0,WeatherDisplay:10.37,2013-10-16 03:01:00,
2013-10-15 21:06:00,30.2,20.2,25.48,South,180,1.6,1.6,66,0.00,CLR,,0.01,0.0,WeatherDisplay:10.37,2013-10-16 03:06:00,
2013-10-15 21:11:00,29.7,20.0,25.48,South,180,0.0,0.0,67,0.00,CLR,,0.01,0.0,WeatherDisplay:10.37,2013-10-16 03:11:00,
2013-10-15 21:16:00,29.7,20.0,25.48,South,180,0.0,0.0,67,0.00,CLR,,0.01,0.0,WeatherDisplay:10.37,2013-10-16 03:16:00,
2013-10-15 21:21:00,29.7,20.4,25.48,South,180,1.2,0.0,68,0.00,CLR,,0.01,0.0,WeatherDisplay:10.37,2013-10-16 03:21:00,
2013-10-15 21:26:00,29.7,20.4,25.48,East,90,0.0,0.0,68,0.00,CLR,,0.01,0.0,WeatherDisplay:10.37,2013-10-16 03:26:00,
2013-10-15 21:31:00,29.5,20.2,25.48,West,270,2.3,0.0,68,0.00,CLR,,0.01,0.0,WeatherDisplay:10.37,2013-10-16 03:31:00,
2013-10-15 21:36:00,29.3,20.4,25.47,West,270,0.0,0.0,69,0.00,CLR,,0.01,0.0,WeatherDisplay:10.37,2013-10-16 03:36:00,
2013-10-15 21:41:00,29.1,20.2,25.48,SSW,202,1.2,0.0,69,0.00,CLR,,0.01,0.0,WeatherDisplay:10.37,2013-10-16 03:41:00,
2013-10-15 21:46:00,29.1,20.2,25.48,South,180,2.3,2.3,69,0.00,CLR,,0.01,0.0,WeatherDisplay:10.37,2013-10-16 03:46:00,
2013-10-15 21:51:00,29.1,20.6,25.47,NW,315,0.0,0.0,70,0.00,CLR,,0.01,0.0,WeatherDisplay:10.37,2013-10-16 03:51:00,
2013-10-15 21:56:00,28.9,20.0,25.48,SE,135,1.2,1.2,69,0.00,CLR,,0.01,0.0,WeatherDisplay:10.37,2013-10-16 03:56:00,
2013-10-15 22:01:00,28.9,20.4,25.48,SE,135,1.2,0.0,70,0.00,CLR,,0.01,0.0,WeatherDisplay:10.37,2013-10-16 04:01:00,
2013-10-15 22:02:00,28.9,20.4,25.47,SE,135,1.2,0.0,70,0.00,CLR,,0.01,0.0,WeatherDisplay:10.37,2013-10-16 04:02:00,
2013-10-15 22:03:00,28.9,20.4,25.48,SE,135,1.2,0.0,70,0.00,CLR,,0.01,0.0,WeatherDisplay:10.37,2013-10-16 04:03:00,
2013-10-15 22:04:00,28.9,20.4,25.48,SE,135,1.2,0.0,70,0.00,CLR,,0.01,0.0,WeatherDisplay:10.37,2013-10-16 04:04:00,
2013-10-15 22:09:00,28.6,20.4,25.48,SE,135,1.2,1.2,71,0.00,CLR,,0.01,0.0,WeatherDisplay:10.37,2013-10-16 04:09:00,
2013-10-15 22:14:00,28.6,20.4,25.47,South,180,3.5,3.5,71,0.00,CLR,,0.01,0.0,WeatherDisplay:10.37,2013-10-16 04:14:00,
2013-10-15 22:19:00,28.8,20.5,25.47,East,90,1.2,0.0,71,0.00,CLR,,0.01,0.0,WeatherDisplay:10.37,2013-10-16 04:19:00,
2013-10-15 22:24:00,28.8,20.5,25.48,West,270,2.3,2.3,71,0.00,CLR,,0.01,0.0,WeatherDisplay:10.37,2013-10-16 04:24:00,
2013-10-15 22:29:00,28.8,20.5,25.48,West,270,1.2,0.0,71,0.00,CLR,,0.01,0.0,WeatherDisplay:10.37,2013-10-16 04:29:00,
2013-10-15 22:34:00,28.6,20.4,25.47,South,180,2.3,2.3,71,0.00,CLR,,0.01,0.0,WeatherDisplay:10.37,2013-10-16 04:34:00,
2013-10-15 22:39:00,28.4,20.2,25.48,SW,225,0.0,0.0,71,0.00,CLR,,0.01,0.0,WeatherDisplay:10.37,2013-10-16 04:39:00,
2013-10-15 22:44:00,28.2,20.0,25.48,SW,225,0.0,0.0,71,0.00,CLR,,0.01,0.0,WeatherDisplay:10.37,2013-10-16 04:44:00,
2013-10-15 22:49:00,28.0,20.2,25.47,South,180,1.2,0.0,72,0.00,CLR,,0.01,0.0,WeatherDisplay:10.37,2013-10-16 04:49:00,
2013-10-15 22:54:00,28.0,20.2,25.47,SW,225,1.2,0.0,72,0.00,CLR,,0.01,0.0,WeatherDisplay:10.37,2013-10-16 04:54:00,
2013-10-15 22:59:00,28.0,20.5,25.47,South,180,3.5,3.5,73,0.00,CLR,,0.01,0.0,WeatherDisplay:10.37,2013-10-16 04:59:00,
2013-10-15 23:04:00,28.0,20.5,25.47,South,180,2.3,2.3,73,0.00,CLR,,0.01,0.0,WeatherDisplay:10.37,2013-10-16 05:04:00,
2013-10-15 23:09:00,28.2,20.7,25.47,South,180,0.0,0.0,73,0.00,CLR,,0.01,0.0,WeatherDisplay:10.37,2013-10-16 05:09:00,
2013-10-15 23:14:00,28.2,21.0,25.46,West,270,3.5,3.5,74,0.00,CLR,,0.01,0.0,WeatherDisplay:10.37,2013-10-16 05:14:00,
2013-10-15 23:19:00,28.4,21.2,25.47,West,270,1.2,0.0,74,0.00,CLR,,0.01,0.0,WeatherDisplay:10.37,2013-10-16 05:19:00,
2013-10-15 23:24:00,28.4,21.2,25.45,SE,135,3.5,3.5,74,0.00,CLR,,0.01,0.0,WeatherDisplay:10.37,2013-10-16 05:24:00,
2013-10-15 23:29:00,28.4,21.2,25.46,NW,315,2.3,0.0,74,0.00,CLR,,0.01,0.0,WeatherDisplay:10.37,2013-10-16 05:29:00,
2013-10-15 23:34:00,28.2,21.0,25.46,SW,225,1.2,1.2,74,0.00,CLR,,0.01,0.0,WeatherDisplay:10.37,2013-10-16 05:34:00,
2013-10-15 23:39:00,28.2,21.0,25.46,South,180,1.2,0.0,74,0.00,CLR,,0.01,0.0,WeatherDisplay:10.37,2013-10-16 05:39:00,
2013-10-15 23:44:00,28.2,21.0,25.46,South,180,0.0,0.0,74,0.00,CLR,,0.01,0.0,WeatherDisplay:10.37,2013-10-16 05:44:00,
2013-10-15 23:49:00,28.0,20.8,25.46,South,180,3.5,3.5,74,0.00,CLR,,0.01,0.0,WeatherDisplay:10.37,2013-10-16 05:49:00,
2013-10-15 23:54:00,28.2,21.3,25.46,SE,135,2.3,2.3,75,0.00,CLR,,0.01,0.0,WeatherDisplay:10.37,2013-10-16 05:54:00,
2013-10-15 23:59:00,28.2,21.3,25.45,South,180,1.2,0.0,75,0.00,RA,,0.00,0.0,WeatherDisplay:10.37,2013-10-16 05:59:00,